createdAt,value
2018-06-14T00:00:15.294Z,1.65
2018-06-14T00:02:44.845Z,2.00
2018-06-14T00:05:13.990Z,1.62
2018-06-14T00:07:43.177Z,1.72
2018-06-14T00:10:13.033Z,1.67
2018-06-14T00:12:42.762Z,1.70
2018-06-14T00:15:11.848Z,1.67
2018-06-14T00:17:40.885Z,1.40
2018-06-14T00:20:09.902Z,1.62
2018-06-14T00:22:39.073Z,1.20
2018-06-14T00:25:08.059Z,1.50
2018-06-14T00:27:37.104Z,1.47
2018-06-14T00:30:06.359Z,1.50
2018-06-14T00:32:35.917Z,1.42
2018-06-14T00:35:05.060Z,1.70
2018-06-14T00:37:34.302Z,1.32
2018-06-14T00:40:03.385Z,1.32
2018-06-14T00:42:32.397Z,1.40
2018-06-14T00:45:01.482Z,1.22
2018-06-14T00:47:30.382Z,1.67
2018-06-14T00:49:59.360Z,1.42
2018-06-14T00:52:29.001Z,1.30
2018-06-14T00:54:58.170Z,1.30
2018-06-14T00:57:29.464Z,1.40
2018-06-14T00:59:58.759Z,1.10
2018-06-14T01:02:28.023Z,1.12
2018-06-14T01:04:57.462Z,1.00
2018-06-14T01:07:26.593Z,1.00
2018-06-14T01:09:55.639Z,1.00
2018-06-14T01:12:24.569Z,1.20
2018-06-14T01:14:53.568Z,1.00
2018-06-14T01:17:22.667Z,1.00
2018-06-14T01:19:51.704Z,1.30
2018-06-14T01:22:21.211Z,1.20
2018-06-14T01:24:50.108Z,1.00
2018-06-14T01:27:18.978Z,0.90
2018-06-14T01:29:47.977Z,1.47
2018-06-14T01:32:18.554Z,1.00
2018-06-14T01:34:47.478Z,0.93
2018-06-14T01:37:16.733Z,1.00
2018-06-14T01:39:45.712Z,0.90
2018-06-14T01:42:14.705Z,0.90
2018-06-14T01:44:43.641Z,0.62
2018-06-14T01:47:12.679Z,1.05
2018-06-14T01:49:41.787Z,1.02
2018-06-14T01:52:22.360Z,0.93
2018-06-14T01:54:51.530Z,1.00
2018-06-14T01:57:20.437Z,0.80
2018-06-14T01:59:49.512Z,0.80
2018-06-14T02:02:18.440Z,0.85
2018-06-14T02:04:47.249Z,0.72
2018-06-14T02:07:16.468Z,0.75
2018-06-14T02:09:45.503Z,1.07
2018-06-14T02:12:14.496Z,0.70
2018-06-14T02:14:43.558Z,0.72
2018-06-14T02:17:12.605Z,0.70
2018-06-14T02:19:41.652Z,0.68
2018-06-14T02:22:10.578Z,0.90
2018-06-14T02:24:39.302Z,1.00
2018-06-14T02:27:08.278Z,0.85
2018-06-14T02:29:37.052Z,0.80
2018-06-14T02:32:05.851Z,0.60
2018-06-14T02:34:34.764Z,0.88
2018-06-14T02:37:03.659Z,0.98
2018-06-14T02:39:32.415Z,0.72
2018-06-14T02:42:01.315Z,0.80
2018-06-14T02:44:30.121Z,0.80
2018-06-14T02:46:58.898Z,0.60
2018-06-14T02:49:27.950Z,0.68
2018-06-14T02:51:56.963Z,0.57
2018-06-14T02:54:25.788Z,0.55
2018-06-14T02:56:54.577Z,0.78
2018-06-14T02:59:23.659Z,0.70
2018-06-14T03:01:52.470Z,0.37
2018-06-14T03:04:21.446Z,0.50
2018-06-14T03:06:50.227Z,0.50
2018-06-14T03:09:19.333Z,0.45
2018-06-14T03:11:48.237Z,0.80
2018-06-14T03:14:17.186Z,0.82
2018-06-14T03:16:46.535Z,0.50
2018-06-14T03:19:15.364Z,0.60
2018-06-14T03:21:44.853Z,0.60
2018-06-14T03:24:13.859Z,0.65
2018-06-14T03:26:42.622Z,0.50
2018-06-14T03:29:11.467Z,0.70
2018-06-14T03:31:40.242Z,0.80
2018-06-14T03:34:08.978Z,0.75
2018-06-14T03:36:37.758Z,0.50
2018-06-14T03:39:09.561Z,0.40
2018-06-14T03:41:38.400Z,0.65
2018-06-14T03:44:07.367Z,0.50
2018-06-14T03:46:36.349Z,0.50
2018-06-14T03:49:05.282Z,0.40
2018-06-14T03:51:34.098Z,0.50
2018-06-14T03:54:03.192Z,0.37
2018-06-14T03:56:32.217Z,0.40
2018-06-14T03:59:01.123Z,0.47
2018-06-14T04:01:30.048Z,0.57
2018-06-14T04:03:59.009Z,0.30
2018-06-14T04:06:28.113Z,0.60
2018-06-14T04:08:57.079Z,0.47
2018-06-14T04:11:25.869Z,0.60
2018-06-14T04:13:54.596Z,0.50
2018-06-14T04:16:23.491Z,0.57
2018-06-14T04:18:52.288Z,0.55
2018-06-14T04:21:21.229Z,0.50
2018-06-14T04:23:49.955Z,0.40
2018-06-14T04:26:18.967Z,0.60
2018-06-14T04:28:47.801Z,0.65
2018-06-14T04:31:16.652Z,0.60
2018-06-14T04:33:45.486Z,1.60
2018-06-14T04:36:14.255Z,1.80
2018-06-14T04:38:43.450Z,1.10
2018-06-14T04:41:12.512Z,1.50
2018-06-14T04:43:41.558Z,1.85
2018-06-14T04:46:10.656Z,1.95
2018-06-14T04:48:39.510Z,1.95
2018-06-14T04:51:08.485Z,2.42
2018-06-14T04:53:40.034Z,2.35
2018-06-14T04:56:11.632Z,2.60
2018-06-14T04:58:40.584Z,2.83
2018-06-14T05:01:09.697Z,2.85
2018-06-14T05:03:38.927Z,2.50
2018-06-14T05:06:08.097Z,3.30
2018-06-14T05:08:37.095Z,3.02
2018-06-14T05:11:06.011Z,2.72
2018-06-14T05:13:34.777Z,3.47
2018-06-14T05:16:03.817Z,3.08
2018-06-14T05:18:32.556Z,2.80
2018-06-14T05:21:01.391Z,3.10
2018-06-14T05:23:30.347Z,2.85
2018-06-14T05:25:59.149Z,3.65
2018-06-14T05:28:28.167Z,3.80
2018-06-14T05:30:56.962Z,4.03
2018-06-14T05:33:26.152Z,3.15
2018-06-14T05:35:54.945Z,4.10
2018-06-14T05:38:24.404Z,3.00
2018-06-14T05:40:53.213Z,2.98
2018-06-14T05:43:21.953Z,2.58
2018-06-14T05:45:50.689Z,3.33
2018-06-14T05:48:19.398Z,2.98
2018-06-14T05:50:48.147Z,2.72
2018-06-14T05:53:16.908Z,3.27
2018-06-14T05:55:45.848Z,2.90
2018-06-14T05:58:14.596Z,2.62
2018-06-14T06:00:43.883Z,2.92
2018-06-14T06:03:12.741Z,2.37
2018-06-14T06:05:41.509Z,2.80
2018-06-14T06:08:11.073Z,2.95
2018-06-14T06:10:39.890Z,2.87
2018-06-14T06:13:08.674Z,2.85
2018-06-14T06:15:37.437Z,2.40
2018-06-14T06:18:06.210Z,2.20
2018-06-14T06:20:34.996Z,2.42
2018-06-14T06:23:03.798Z,2.75
2018-06-14T06:25:32.581Z,2.40
2018-06-14T06:28:01.345Z,2.17
2018-06-14T06:30:30.183Z,3.05
2018-06-14T06:32:58.903Z,2.10
2018-06-14T06:35:27.761Z,3.27
2018-06-14T06:37:56.481Z,2.80
2018-06-14T06:40:25.669Z,2.30
2018-06-14T06:42:54.443Z,2.35
2018-06-14T06:45:23.297Z,3.20
2018-06-14T06:47:52.096Z,2.65
2018-06-14T06:50:21.198Z,3.42
2018-06-14T06:52:50.173Z,3.00
2018-06-14T06:55:19.170Z,3.33
2018-06-14T06:57:48.108Z,2.98
2018-06-14T07:00:17.053Z,2.80
2018-06-14T07:02:46.052Z,2.95
2018-06-14T07:05:15.189Z,2.40
2018-06-14T07:07:44.323Z,3.10
2018-06-14T07:10:13.394Z,2.55
2018-06-14T07:12:42.517Z,2.95
2018-06-14T07:15:11.581Z,2.52
2018-06-14T07:17:40.572Z,2.45
2018-06-14T07:20:09.298Z,2.22
2018-06-14T07:22:38.276Z,2.00
2018-06-14T07:25:07.411Z,2.15
2018-06-14T07:27:36.461Z,2.72
2018-06-14T07:30:06.132Z,2.02
2018-06-14T07:32:35.115Z,2.42
2018-06-14T07:35:04.021Z,2.30
2018-06-14T07:37:33.153Z,2.00
2018-06-14T07:40:02.066Z,2.20
2018-06-14T07:42:30.911Z,2.22
2018-06-14T07:44:59.946Z,2.37
2018-06-14T07:47:28.877Z,2.35
2018-06-14T07:49:57.819Z,1.85
2018-06-14T07:52:28.037Z,2.22
2018-06-14T07:54:56.917Z,2.08
2018-06-14T07:57:25.793Z,1.70
2018-06-14T07:59:54.786Z,2.37
2018-06-14T08:02:24.062Z,2.17
2018-06-14T08:04:53.170Z,2.00
2018-06-14T08:07:22.159Z,2.15
2018-06-14T08:09:51.273Z,2.10
2018-06-14T08:12:20.197Z,2.10
2018-06-14T08:14:49.234Z,2.00
2018-06-14T08:17:18.342Z,1.72
2018-06-14T08:19:47.429Z,2.10
2018-06-14T08:22:16.431Z,1.67
2018-06-14T08:24:45.420Z,1.62
2018-06-14T08:27:14.359Z,2.12
2018-06-14T08:29:43.318Z,1.90
2018-06-14T08:32:12.217Z,1.80
2018-06-14T08:34:41.003Z,1.82
2018-06-14T08:37:09.808Z,1.70
2018-06-14T08:39:38.688Z,1.75
2018-06-14T08:42:07.458Z,1.90
2018-06-14T08:44:36.383Z,2.10
2018-06-14T08:47:05.392Z,1.90
2018-06-14T08:49:34.389Z,1.90
2018-06-14T08:52:03.451Z,2.15
2018-06-14T08:54:32.232Z,1.90
2018-06-14T08:57:01.017Z,1.77
2018-06-14T08:59:29.813Z,1.98
2018-06-14T09:01:58.544Z,1.77
2018-06-14T09:04:27.424Z,1.82
2018-06-14T09:06:56.244Z,1.57
2018-06-14T09:09:25.062Z,1.35
2018-06-14T09:11:53.871Z,1.60
2018-06-14T09:14:22.732Z,1.60
2018-06-14T09:16:52.431Z,1.90
2018-06-14T09:19:21.581Z,1.60
2018-06-14T09:21:50.684Z,1.67
2018-06-14T09:24:19.634Z,1.70
2018-06-14T09:26:48.770Z,1.80
2018-06-14T09:29:17.647Z,1.77
2018-06-14T09:31:46.763Z,1.30
2018-06-14T09:34:15.772Z,1.37
2018-06-14T09:36:44.801Z,1.80
2018-06-14T09:39:13.810Z,1.62
2018-06-14T09:41:42.746Z,1.55
2018-06-14T09:44:11.938Z,1.55
2018-06-14T09:46:40.785Z,1.77
2018-06-14T09:49:10.115Z,1.55
2018-06-14T09:51:39.395Z,1.57
2018-06-14T09:54:08.447Z,1.50
2018-06-14T09:56:37.680Z,1.20
2018-06-14T09:59:06.539Z,1.47
2018-06-14T10:01:35.772Z,1.30
2018-06-14T10:04:04.904Z,1.45
2018-06-14T10:06:33.944Z,1.40
2018-06-14T10:09:03.157Z,1.20
2018-06-14T10:11:32.109Z,1.25
2018-06-14T10:14:01.204Z,1.55
2018-06-14T10:16:30.146Z,1.40
2018-06-14T10:18:59.052Z,1.40
2018-06-14T10:21:27.978Z,1.60
2018-06-14T10:23:57.032Z,1.32
2018-06-14T10:26:26.082Z,1.50
2018-06-14T10:28:55.073Z,1.60
2018-06-14T10:31:24.169Z,1.40
2018-06-14T10:33:53.037Z,1.45
2018-06-14T10:36:22.081Z,1.45
2018-06-14T10:38:51.409Z,1.35
2018-06-14T10:41:20.219Z,1.20
2018-06-14T10:43:49.073Z,1.62
2018-06-14T10:46:18.138Z,1.47
2018-06-14T10:48:47.217Z,1.47
2018-06-14T10:51:16.061Z,1.15
2018-06-14T10:53:45.175Z,1.17
2018-06-14T10:56:14.204Z,1.40
2018-06-14T10:58:43.058Z,1.40
2018-06-14T11:01:12.159Z,1.40
2018-06-14T11:03:41.183Z,1.55
2018-06-14T11:06:10.197Z,1.77
2018-06-14T11:08:39.220Z,1.40
2018-06-14T11:11:08.121Z,1.27
2018-06-14T11:13:37.000Z,1.50
2018-06-14T11:16:05.949Z,1.22
2018-06-14T11:18:34.771Z,1.47
2018-06-14T11:21:04.095Z,1.72
2018-06-14T11:23:32.856Z,1.47
2018-06-14T11:26:02.054Z,1.70
2018-06-14T11:28:31.639Z,1.45
2018-06-14T11:31:00.546Z,1.82
2018-06-14T11:33:29.639Z,2.02
2018-06-14T11:35:58.777Z,2.25
2018-06-14T11:38:27.819Z,1.70
2018-06-14T11:40:56.729Z,2.12
2018-06-14T11:43:25.486Z,1.82
2018-06-14T11:45:54.284Z,2.30
2018-06-14T11:48:23.190Z,2.33
2018-06-14T11:50:52.291Z,2.60
2018-06-14T11:53:21.186Z,2.20
2018-06-14T11:55:50.029Z,2.37
2018-06-14T11:58:18.758Z,2.52
2018-06-14T12:00:47.563Z,2.37
2018-06-14T12:03:16.443Z,2.12
2018-06-14T12:05:45.262Z,2.72
2018-06-14T12:08:14.183Z,2.50
2018-06-14T12:10:43.222Z,2.40
2018-06-14T12:13:12.162Z,2.40
2018-06-14T12:15:41.100Z,2.20
2018-06-14T12:18:10.114Z,2.37
2018-06-14T12:20:39.114Z,2.50
2018-06-14T12:23:08.346Z,2.30
2018-06-14T12:25:37.360Z,2.40
2018-06-14T12:28:06.320Z,2.80
2018-06-14T12:30:35.056Z,2.00
2018-06-14T12:33:03.807Z,2.17
2018-06-14T12:35:32.577Z,2.27
2018-06-14T12:38:01.348Z,2.52
2018-06-14T12:40:30.482Z,2.50
2018-06-14T12:42:59.485Z,2.10
2018-06-14T12:45:28.317Z,2.02
2018-06-14T12:47:57.064Z,2.27
2018-06-14T12:50:25.824Z,2.30
2018-06-14T12:52:54.601Z,2.12
2018-06-14T12:55:23.448Z,2.42
2018-06-14T12:57:52.525Z,2.35
2018-06-14T13:00:22.154Z,2.30
2018-06-14T13:02:51.137Z,2.08
2018-06-14T13:05:20.158Z,2.10
2018-06-14T13:07:49.105Z,2.20
2018-06-14T13:10:18.202Z,2.10
2018-06-14T13:12:47.200Z,2.08
2018-06-14T13:15:16.247Z,2.10
2018-06-14T13:17:45.388Z,2.30
2018-06-14T13:20:14.564Z,2.27
2018-06-14T13:22:43.541Z,2.12
2018-06-14T13:25:12.502Z,1.90
2018-06-14T13:27:41.679Z,1.90
2018-06-14T13:30:10.626Z,1.98
2018-06-14T13:32:39.513Z,1.87
2018-06-14T13:35:09.520Z,2.42
2018-06-14T13:37:38.484Z,2.08
2018-06-14T13:40:07.261Z,2.17
2018-06-14T13:42:36.397Z,2.00
2018-06-14T13:45:05.661Z,2.12
2018-06-14T13:47:34.403Z,1.95
2018-06-14T13:50:03.438Z,2.08
2018-06-14T13:52:32.429Z,1.90
2018-06-14T13:55:01.536Z,1.90
2018-06-14T13:57:30.596Z,1.95
2018-06-14T13:59:59.849Z,1.92
2018-06-14T14:02:28.723Z,1.85
2018-06-14T14:04:57.507Z,1.80
2018-06-14T14:07:28.366Z,1.77
2018-06-14T14:09:58.048Z,1.92
2018-06-14T14:12:27.565Z,1.92
2018-06-14T14:14:56.865Z,1.75
2018-06-14T14:17:25.993Z,1.60
2018-06-14T14:19:55.122Z,2.05
2018-06-14T14:22:24.251Z,1.80
2018-06-14T14:24:53.486Z,2.08
2018-06-14T14:27:23.079Z,2.05
2018-06-14T14:29:52.339Z,1.65
2018-06-14T14:32:21.515Z,1.82
2018-06-14T14:34:50.618Z,2.25
2018-06-14T14:37:19.722Z,1.65
2018-06-14T14:39:48.674Z,1.77
2018-06-14T14:42:17.578Z,1.82
2018-06-14T14:44:46.385Z,1.82
2018-06-14T14:47:15.130Z,1.82
2018-06-14T14:49:43.920Z,2.00
2018-06-14T14:52:12.694Z,2.10
2018-06-14T14:54:41.436Z,2.00
2018-06-14T14:57:10.338Z,2.05
2018-06-14T14:59:39.241Z,2.12
2018-06-14T15:02:07.962Z,2.02
2018-06-14T15:04:37.054Z,3.33
2018-06-14T15:07:05.905Z,2.30
2018-06-14T15:09:34.763Z,4.20
2018-06-14T15:12:03.855Z,3.02
2018-06-14T15:14:32.768Z,3.20
2018-06-14T15:17:01.925Z,5.55
2018-06-14T15:19:31.016Z,5.65
2018-06-14T15:21:59.860Z,6.05
2018-06-14T15:24:28.647Z,4.55
2018-06-14T15:26:57.550Z,5.35
2018-06-14T15:29:26.430Z,6.28
2018-06-14T15:31:55.198Z,5.90
2018-06-14T15:34:24.129Z,5.30
2018-06-14T15:36:53.170Z,5.55
2018-06-14T15:39:22.251Z,5.03
2018-06-14T15:41:51.323Z,5.62
2018-06-14T15:44:20.322Z,5.92
2018-06-14T15:46:49.846Z,4.75
2018-06-14T15:49:19.105Z,5.08
2018-06-14T15:51:47.884Z,4.78
2018-06-14T15:54:17.486Z,4.83
2018-06-14T15:56:46.251Z,4.22
2018-06-14T15:59:16.265Z,4.22
2018-06-14T16:01:45.361Z,3.60
2018-06-14T16:04:14.245Z,3.87
2018-06-14T16:06:43.389Z,4.20
2018-06-14T16:09:12.757Z,4.10
2018-06-14T16:11:41.948Z,4.10
2018-06-14T16:14:10.718Z,4.03
2018-06-14T16:16:39.514Z,4.00
2018-06-14T16:19:08.316Z,3.27
2018-06-14T16:21:37.432Z,3.98
2018-06-14T16:24:06.767Z,3.95
2018-06-14T16:26:35.838Z,3.37
2018-06-14T16:29:05.057Z,4.10
2018-06-14T16:31:34.288Z,3.25
2018-06-14T16:34:03.329Z,3.42
2018-06-14T16:36:32.483Z,3.72
2018-06-14T16:39:01.715Z,3.85
2018-06-14T16:41:30.557Z,3.77
2018-06-14T16:43:59.358Z,4.15
2018-06-14T16:46:28.171Z,4.17
2018-06-14T16:48:57.068Z,3.47
2018-06-14T16:51:25.870Z,3.35
2018-06-14T16:53:54.702Z,3.27
2018-06-14T16:56:23.626Z,2.27
2018-06-14T16:58:52.502Z,3.30
2018-06-14T17:01:21.331Z,2.55
2018-06-14T17:03:50.232Z,2.00
2018-06-14T17:06:19.261Z,2.30
2018-06-14T17:08:48.518Z,2.60
2018-06-14T17:11:17.330Z,2.50
2018-06-14T17:13:46.108Z,2.72
2018-06-14T17:16:14.901Z,2.83
2018-06-14T17:18:43.798Z,2.72
2018-06-14T17:21:12.673Z,2.67
2018-06-14T17:23:41.527Z,2.60
2018-06-14T17:26:10.390Z,2.75
2018-06-14T17:28:39.270Z,2.50
2018-06-14T17:31:08.125Z,2.65
2018-06-14T17:33:37.018Z,3.15
2018-06-14T17:36:06.083Z,2.85
2018-06-14T17:38:34.883Z,2.60
2018-06-14T17:41:03.870Z,2.85
2018-06-14T17:43:32.675Z,3.10
2018-06-14T17:46:01.495Z,2.80
2018-06-14T17:48:30.299Z,3.08
2018-06-14T17:50:59.067Z,2.77
2018-06-14T17:53:27.900Z,2.80
2018-06-14T17:55:56.762Z,3.05
2018-06-14T17:58:25.774Z,2.80
2018-06-14T18:00:55.005Z,3.08
2018-06-14T18:03:23.795Z,3.10
2018-06-14T18:05:52.955Z,3.00
2018-06-14T18:08:22.108Z,2.80
2018-06-14T18:10:51.271Z,3.25
2018-06-14T18:13:20.551Z,3.67
2018-06-14T18:15:49.903Z,2.95
2018-06-14T18:18:18.909Z,3.35
2018-06-14T18:20:48.112Z,3.30
2018-06-14T18:23:17.376Z,3.47
2018-06-14T18:25:46.496Z,3.08
2018-06-14T18:28:15.534Z,3.12
2018-06-14T18:30:44.594Z,2.77
2018-06-14T18:33:13.542Z,3.25
2018-06-14T18:35:42.637Z,2.92
2018-06-14T18:38:11.690Z,3.27
2018-06-14T18:40:40.642Z,3.40
2018-06-14T18:43:10.012Z,3.33
2018-06-14T18:45:39.195Z,3.65
2018-06-14T18:48:08.340Z,3.85
2018-06-14T18:50:37.421Z,3.85
2018-06-14T18:53:06.376Z,3.60
2018-06-14T18:55:35.425Z,3.83
2018-06-14T18:58:04.460Z,3.80
2018-06-14T19:00:33.595Z,3.95
2018-06-14T19:03:02.664Z,4.62
2018-06-14T19:05:31.687Z,4.03
2018-06-14T19:08:00.469Z,4.17
2018-06-14T19:10:29.557Z,3.65
2018-06-14T19:12:58.739Z,3.08
2018-06-14T19:15:27.793Z,3.20
2018-06-14T19:17:57.015Z,3.60
2018-06-14T19:20:25.976Z,3.52
2018-06-14T19:22:55.216Z,3.30
2018-06-14T19:25:24.037Z,4.00
2018-06-14T19:27:53.113Z,3.37
2018-06-14T19:30:22.135Z,3.60
2018-06-14T19:32:51.419Z,3.72
2018-06-14T19:35:20.356Z,3.55
2018-06-14T19:37:49.431Z,3.87
2018-06-14T19:40:18.546Z,3.50
2018-06-14T19:42:47.815Z,3.42
2018-06-14T19:45:16.970Z,4.12
2018-06-14T19:47:46.130Z,3.27
2018-06-14T19:50:15.338Z,3.65
2018-06-14T19:52:44.779Z,3.62
2018-06-14T19:55:14.696Z,3.10
2018-06-14T19:57:43.733Z,3.70
2018-06-14T20:00:12.594Z,3.02
2018-06-14T20:02:41.626Z,3.33
2018-06-14T20:05:10.439Z,3.33
2018-06-14T20:07:39.460Z,3.12
2018-06-14T20:10:08.453Z,2.70
2018-06-14T20:12:37.653Z,3.10
2018-06-14T20:15:06.688Z,3.00
2018-06-14T20:17:35.766Z,2.98
2018-06-14T20:20:05.152Z,2.55
2018-06-14T20:22:34.203Z,3.62
2018-06-14T20:25:03.449Z,2.42
2018-06-14T20:27:32.522Z,2.85
2018-06-14T20:30:01.957Z,2.85
2018-06-14T20:32:31.249Z,2.70
2018-06-14T20:35:00.106Z,2.72
2018-06-14T20:37:29.190Z,2.65
2018-06-14T20:39:58.482Z,2.67
2018-06-14T20:42:28.021Z,2.45
2018-06-14T20:44:57.235Z,2.98
2018-06-14T20:47:26.561Z,2.45
2018-06-14T20:49:55.909Z,2.35
2018-06-14T20:52:25.114Z,2.65
2018-06-14T20:54:54.862Z,2.02
2018-06-14T20:57:24.078Z,2.42
2018-06-14T20:59:53.414Z,2.10
2018-06-14T21:02:22.253Z,2.47
2018-06-14T21:04:51.066Z,2.70
2018-06-14T21:07:20.001Z,2.67
2018-06-14T21:09:48.965Z,2.65
2018-06-14T21:12:17.812Z,2.50
2018-06-14T21:14:47.138Z,2.40
2018-06-14T21:17:15.957Z,2.60
2018-06-14T21:19:44.756Z,2.60
2018-06-14T21:22:13.641Z,2.42
2018-06-14T21:24:42.443Z,2.95
2018-06-14T21:27:11.997Z,2.90
2018-06-14T21:29:41.600Z,2.77
2018-06-14T21:32:11.293Z,3.17
2018-06-14T21:34:40.279Z,2.87
2018-06-14T21:37:09.815Z,2.62
2018-06-14T21:39:39.515Z,2.65
2018-06-14T21:42:09.236Z,2.58
2018-06-14T21:44:38.834Z,2.58
2018-06-14T21:47:08.452Z,2.80
2018-06-14T21:49:38.057Z,2.37
2018-06-14T21:52:07.657Z,2.50
2018-06-14T21:54:36.961Z,2.80
2018-06-14T21:57:06.575Z,2.17
2018-06-14T21:59:36.288Z,2.40
2018-06-14T22:02:05.174Z,2.62
2018-06-14T22:04:34.357Z,2.50
2018-06-14T22:07:03.475Z,2.40
2018-06-14T22:09:32.780Z,2.50
2018-06-14T22:12:01.770Z,2.37
2018-06-14T22:14:31.273Z,2.12
2018-06-14T22:17:01.186Z,2.50
2018-06-14T22:19:30.889Z,2.05
2018-06-14T22:22:00.510Z,2.40
2018-06-14T22:24:30.218Z,2.60
2018-06-14T22:26:59.831Z,2.65
2018-06-14T22:29:29.948Z,2.40
2018-06-14T22:31:59.541Z,2.30
2018-06-14T22:34:39.714Z,2.33
2018-06-14T22:37:09.318Z,2.20
2018-06-14T22:39:38.732Z,2.50
2018-06-14T22:42:08.325Z,2.20
2018-06-14T22:44:38.031Z,2.05
2018-06-14T22:47:07.924Z,2.20
2018-06-14T22:49:37.559Z,2.30
2018-06-14T22:52:50.073Z,2.33
2018-06-14T22:55:20.503Z,1.90
2018-06-14T22:57:50.190Z,2.02
2018-06-14T23:01:31.703Z,2.10
2018-06-14T23:04:02.029Z,2.08
2018-06-14T23:06:31.746Z,2.12
2018-06-14T23:09:02.690Z,2.80
2018-06-14T23:11:33.117Z,2.67
2018-06-14T23:14:03.426Z,2.25
2018-06-14T23:16:33.763Z,2.45
2018-06-14T23:19:03.870Z,2.37
2018-06-14T23:21:33.915Z,2.33
2018-06-14T23:24:04.326Z,2.12
2018-06-14T23:26:34.546Z,2.15
2018-06-14T23:29:04.563Z,2.05
2018-06-14T23:31:34.885Z,1.90
2018-06-14T23:34:05.842Z,2.02
2018-06-14T23:36:36.279Z,2.45
2018-06-14T23:39:07.403Z,2.33
2018-06-14T23:41:36.661Z,2.05
2018-06-14T23:44:05.781Z,2.17
2018-06-14T23:46:34.938Z,1.98
2018-06-14T23:49:05.490Z,1.72
